sensor_id;sensor_type;location;lat;lon;timestamp;temperature;humidity
12115;DHT22;6121;49.810;6.418;2023-02-28T00:00:18;-0.70;90.60
12115;DHT22;6121;49.810;6.418;2023-02-28T00:02:45;-0.90;90.60
12115;DHT22;6121;49.810;6.418;2023-02-28T00:05:13;-1.00;90.80
12115;DHT22;6121;49.810;6.418;2023-02-28T00:07:40;-1.00;91.30
12115;DHT22;6121;49.810;6.418;2023-02-28T00:10:08;-1.00;91.40
12115;DHT22;6121;49.810;6.418;2023-02-28T00:12:35;-1.00;91.50
12115;DHT22;6121;49.810;6.418;2023-02-28T00:15:02;-1.10;91.50
12115;DHT22;6121;49.810;6.418;2023-02-28T00:17:30;-1.20;91.90
12115;DHT22;6121;49.810;6.418;2023-02-28T00:19:56;-1.20;92.10
12115;DHT22;6121;49.810;6.418;2023-02-28T00:22:22;-1.30;92.20
12115;DHT22;6121;49.810;6.418;2023-02-28T00:24:48;-1.10;92.30
12115;DHT22;6121;49.810;6.418;2023-02-28T00:27:14;-1.10;92.30
12115;DHT22;6121;49.810;6.418;2023-02-28T00:29:40;-1.10;92.40
12115;DHT22;6121;49.810;6.418;2023-02-28T00:32:07;-1.10;92.30
12115;DHT22;6121;49.810;6.418;2023-02-28T00:34:34;-1.30;92.50
12115;DHT22;6121;49.810;6.418;2023-02-28T00:37:07;-1.50;92.90
12115;DHT22;6121;49.810;6.418;2023-02-28T00:39:37;-1.50;93.40
12115;DHT22;6121;49.810;6.418;2023-02-28T00:42:04;-1.40;93.30
12115;DHT22;6121;49.810;6.418;2023-02-28T00:44:31;-1.30;93.20
12115;DHT22;6121;49.810;6.418;2023-02-28T00:46:57;-1.40;93.30
12115;DHT22;6121;49.810;6.418;2023-02-28T00:49:25;-1.60;93.50
12115;DHT22;6121;49.810;6.418;2023-02-28T00:51:51;-1.50;93.80
12115;DHT22;6121;49.810;6.418;2023-02-28T00:54:19;-1.50;93.90
12115;DHT22;6121;49.810;6.418;2023-02-28T00:56:47;-1.40;93.70
12115;DHT22;6121;49.810;6.418;2023-02-28T00:59:14;-1.40;93.90
12115;DHT22;6121;49.810;6.418;2023-02-28T01:01:42;-1.40;94.00
12115;DHT22;6121;49.810;6.418;2023-02-28T01:04:07;-1.30;94.10
12115;DHT22;6121;49.810;6.418;2023-02-28T01:06:35;-1.50;93.90
12115;DHT22;6121;49.810;6.418;2023-02-28T01:09:02;-1.30;94.20
12115;DHT22;6121;49.810;6.418;2023-02-28T01:11:28;-1.50;94.40
12115;DHT22;6121;49.810;6.418;2023-02-28T01:13:54;-1.80;94.30
12115;DHT22;6121;49.810;6.418;2023-02-28T01:16:20;-2.00;95.00
12115;DHT22;6121;49.810;6.418;2023-02-28T01:18:46;-1.90;95.50
12115;DHT22;6121;49.810;6.418;2023-02-28T01:21:14;-1.80;95.40
12115;DHT22;6121;49.810;6.418;2023-02-28T01:23:44;-1.70;95.50
12115;DHT22;6121;49.810;6.418;2023-02-28T01:26:21;-1.90;95.60
12115;DHT22;6121;49.810;6.418;2023-02-28T01:28:49;-1.80;95.70
12115;DHT22;6121;49.810;6.418;2023-02-28T01:31:15;-1.70;95.70
12115;DHT22;6121;49.810;6.418;2023-02-28T01:33:42;-1.90;96.00
12115;DHT22;6121;49.810;6.418;2023-02-28T01:36:12;-2.00;96.10
12115;DHT22;6121;49.810;6.418;2023-02-28T01:38:38;-2.10;96.40
12115;DHT22;6121;49.810;6.418;2023-02-28T01:41:05;-2.10;96.60
12115;DHT22;6121;49.810;6.418;2023-02-28T01:46:12;-2.30;97.00
12115;DHT22;6121;49.810;6.418;2023-02-28T01:48:54;-2.20;97.00
12115;DHT22;6121;49.810;6.418;2023-02-28T01:51:29;-2.10;97.00
12115;DHT22;6121;49.810;6.418;2023-02-28T01:53:59;-2.10;97.10
12115;DHT22;6121;49.810;6.418;2023-02-28T01:56:32;-2.00;97.10
12115;DHT22;6121;49.810;6.418;2023-02-28T01:58:58;-2.10;97.00
12115;DHT22;6121;49.810;6.418;2023-02-28T02:01:26;-2.30;97.40
12115;DHT22;6121;49.810;6.418;2023-02-28T02:03:55;-2.20;97.70
12115;DHT22;6121;49.810;6.418;2023-02-28T02:06:30;-2.20;97.90
12115;DHT22;6121;49.810;6.418;2023-02-28T02:08:59;-2.30;97.90
12115;DHT22;6121;49.810;6.418;2023-02-28T02:11:25;-2.30;97.90
12115;DHT22;6121;49.810;6.418;2023-02-28T02:25:35;-2.20;98.30
12115;DHT22;6121;49.810;6.418;2023-02-28T02:34:21;-2.30;98.60
12115;DHT22;6121;49.810;6.418;2023-02-28T02:37:09;-2.60;99.20
12115;DHT22;6121;49.810;6.418;2023-02-28T02:40:00;-2.60;99.50
12115;DHT22;6121;49.810;6.418;2023-02-28T02:42:35;-2.50;99.50
12115;DHT22;6121;49.810;6.418;2023-02-28T02:45:11;-2.30;99.50
12115;DHT22;6121;49.810;6.418;2023-02-28T02:47:39;-2.40;99.10
12115;DHT22;6121;49.810;6.418;2023-02-28T02:50:08;-2.60;99.50
12115;DHT22;6121;49.810;6.418;2023-02-28T02:52:43;-2.70;99.90
12115;DHT22;6121;49.810;6.418;2023-02-28T02:55:11;-2.40;99.90
12115;DHT22;6121;49.810;6.418;2023-02-28T02:57:59;-2.40;99.50
12115;DHT22;6121;49.810;6.418;2023-02-28T03:00:31;-2.50;99.70
12115;DHT22;6121;49.810;6.418;2023-02-28T03:02:59;-2.50;99.70
12115;DHT22;6121;49.810;6.418;2023-02-28T03:05:44;-2.70;99.90
12115;DHT22;6121;49.810;6.418;2023-02-28T03:08:11;-2.70;99.90
12115;DHT22;6121;49.810;6.418;2023-02-28T03:10:40;-2.70;99.90
12115;DHT22;6121;49.810;6.418;2023-02-28T03:21:46;-2.80;99.90
12115;DHT22;6121;49.810;6.418;2023-02-28T03:24:19;-2.70;99.90
12115;DHT22;6121;49.810;6.418;2023-02-28T03:26:55;-2.60;99.90
12115;DHT22;6121;49.810;6.418;2023-02-28T03:29:39;-2.80;99.90
12115;DHT22;6121;49.810;6.418;2023-02-28T03:32:19;-2.60;99.90
12115;DHT22;6121;49.810;6.418;2023-02-28T03:37:35;-2.80;99.90
12115;DHT22;6121;49.810;6.418;2023-02-28T03:40:14;-2.90;99.90
12115;DHT22;6121;49.810;6.418;2023-02-28T03:42:44;-2.80;99.90
12115;DHT22;6121;49.810;6.418;2023-02-28T03:45:19;-2.90;99.90
12115;DHT22;6121;49.810;6.418;2023-02-28T03:47:53;-2.80;99.90
12115;DHT22;6121;49.810;6.418;2023-02-28T03:50:26;-2.90;99.90
12115;DHT22;6121;49.810;6.418;2023-02-28T03:53:05;-2.90;99.90
12115;DHT22;6121;49.810;6.418;2023-02-28T03:55:39;-2.90;99.90
12115;DHT22;6121;49.810;6.418;2023-02-28T03:58:20;-2.90;99.90
12115;DHT22;6121;49.810;6.418;2023-02-28T04:00:50;-2.80;99.90
12115;DHT22;6121;49.810;6.418;2023-02-28T04:03:20;-2.80;99.90
12115;DHT22;6121;49.810;6.418;2023-02-28T04:05:54;-2.80;99.90
12115;DHT22;6121;49.810;6.418;2023-02-28T04:08:20;-3.00;99.90
12115;DHT22;6121;49.810;6.418;2023-02-28T04:10:56;-2.90;99.90
12115;DHT22;6121;49.810;6.418;2023-02-28T04:13:23;-2.90;99.90
12115;DHT22;6121;49.810;6.418;2023-02-28T04:15:50;-2.60;99.90
12115;DHT22;6121;49.810;6.418;2023-02-28T04:18:15;-2.50;99.90
12115;DHT22;6121;49.810;6.418;2023-02-28T04:20:41;-2.50;99.90
12115;DHT22;6121;49.810;6.418;2023-02-28T04:23:07;-2.50;99.90
12115;DHT22;6121;49.810;6.418;2023-02-28T04:25:33;-2.70;99.90
12115;DHT22;6121;49.810;6.418;2023-02-28T04:27:59;-2.70;99.90
12115;DHT22;6121;49.810;6.418;2023-02-28T04:30:24;-2.30;99.90
12115;DHT22;6121;49.810;6.418;2023-02-28T04:32:50;-1.90;99.90
12115;DHT22;6121;49.810;6.418;2023-02-28T04:35:16;-1.60;99.90
12115;DHT22;6121;49.810;6.418;2023-02-28T04:37:42;-1.60;99.90
12115;DHT22;6121;49.810;6.418;2023-02-28T04:40:08;-1.50;99.90
12115;DHT22;6121;49.810;6.418;2023-02-28T04:42:34;-1.70;99.90
12115;DHT22;6121;49.810;6.418;2023-02-28T04:45:05;-1.70;99.90
12115;DHT22;6121;49.810;6.418;2023-02-28T04:47:31;-1.60;99.90
12115;DHT22;6121;49.810;6.418;2023-02-28T04:49:56;-1.70;99.90
12115;DHT22;6121;49.810;6.418;2023-02-28T04:52:22;-1.40;99.90
12115;DHT22;6121;49.810;6.418;2023-02-28T04:54:48;-1.50;99.90
12115;DHT22;6121;49.810;6.418;2023-02-28T04:57:14;-1.60;99.90
12115;DHT22;6121;49.810;6.418;2023-02-28T04:59:40;-1.80;99.90
12115;DHT22;6121;49.810;6.418;2023-02-28T05:02:06;-1.50;99.90
12115;DHT22;6121;49.810;6.418;2023-02-28T05:04:33;-1.50;99.90
12115;DHT22;6121;49.810;6.418;2023-02-28T05:07:00;-1.50;99.90
12115;DHT22;6121;49.810;6.418;2023-02-28T05:09:27;-1.60;99.90
12115;DHT22;6121;49.810;6.418;2023-02-28T05:11:54;-1.60;99.90
12115;DHT22;6121;49.810;6.418;2023-02-28T05:14:20;-1.60;99.90
12115;DHT22;6121;49.810;6.418;2023-02-28T05:16:46;-1.60;99.90
12115;DHT22;6121;49.810;6.418;2023-02-28T05:19:12;-1.70;99.90
12115;DHT22;6121;49.810;6.418;2023-02-28T05:21:40;-1.80;99.90
12115;DHT22;6121;49.810;6.418;2023-02-28T05:24:10;-1.80;99.90
12115;DHT22;6121;49.810;6.418;2023-02-28T05:26:38;-1.70;99.90
12115;DHT22;6121;49.810;6.418;2023-02-28T05:29:04;-1.60;99.90
12115;DHT22;6121;49.810;6.418;2023-02-28T05:31:30;-1.40;99.90
12115;DHT22;6121;49.810;6.418;2023-02-28T05:33:56;-1.20;99.90
12115;DHT22;6121;49.810;6.418;2023-02-28T05:36:24;-1.10;99.90
12115;DHT22;6121;49.810;6.418;2023-02-28T05:38:50;-1.00;99.90
12115;DHT22;6121;49.810;6.418;2023-02-28T05:41:18;-1.00;99.90
12115;DHT22;6121;49.810;6.418;2023-02-28T05:43:45;-1.10;99.90
12115;DHT22;6121;49.810;6.418;2023-02-28T05:46:12;-1.20;99.90
12115;DHT22;6121;49.810;6.418;2023-02-28T05:48:39;-1.10;99.90
12115;DHT22;6121;49.810;6.418;2023-02-28T05:51:06;-1.10;99.90
12115;DHT22;6121;49.810;6.418;2023-02-28T05:53:32;-1.10;99.90
12115;DHT22;6121;49.810;6.418;2023-02-28T05:55:58;-0.90;99.90
12115;DHT22;6121;49.810;6.418;2023-02-28T05:58:24;-1.00;99.90
12115;DHT22;6121;49.810;6.418;2023-02-28T06:00:54;-1.00;99.90
12115;DHT22;6121;49.810;6.418;2023-02-28T06:03:20;-1.10;99.90
12115;DHT22;6121;49.810;6.418;2023-02-28T06:05:46;-1.10;99.90
12115;DHT22;6121;49.810;6.418;2023-02-28T06:08:12;-1.00;99.90
12115;DHT22;6121;49.810;6.418;2023-02-28T06:10:38;-1.00;99.90
12115;DHT22;6121;49.810;6.418;2023-02-28T06:13:05;-1.10;99.90
12115;DHT22;6121;49.810;6.418;2023-02-28T06:15:31;-1.20;99.90
12115;DHT22;6121;49.810;6.418;2023-02-28T06:17:58;-1.20;99.90
12115;DHT22;6121;49.810;6.418;2023-02-28T06:20:26;-1.40;99.90
12115;DHT22;6121;49.810;6.418;2023-02-28T06:22:56;-1.20;99.90
12115;DHT22;6121;49.810;6.418;2023-02-28T06:25:25;-1.20;99.90
12115;DHT22;6121;49.810;6.418;2023-02-28T06:27:52;-1.30;99.90
12115;DHT22;6121;49.810;6.418;2023-02-28T06:30:18;-1.30;99.90
12115;DHT22;6121;49.810;6.418;2023-02-28T06:32:53;-1.20;99.90
12115;DHT22;6121;49.810;6.418;2023-02-28T06:35:19;-1.10;99.90
12115;DHT22;6121;49.810;6.418;2023-02-28T06:37:44;-1.00;99.90
12115;DHT22;6121;49.810;6.418;2023-02-28T06:40:11;-0.90;99.90
12115;DHT22;6121;49.810;6.418;2023-02-28T06:42:39;-1.00;99.90
12115;DHT22;6121;49.810;6.418;2023-02-28T06:45:06;-1.00;99.90
12115;DHT22;6121;49.810;6.418;2023-02-28T06:47:35;-0.80;99.90
12115;DHT22;6121;49.810;6.418;2023-02-28T06:50:02;-0.80;99.90
12115;DHT22;6121;49.810;6.418;2023-02-28T06:52:28;-0.60;99.90
12115;DHT22;6121;49.810;6.418;2023-02-28T06:54:55;-0.60;99.90
12115;DHT22;6121;49.810;6.418;2023-02-28T06:57:27;-0.50;99.90
12115;DHT22;6121;49.810;6.418;2023-02-28T06:59:57;-0.50;99.90
12115;DHT22;6121;49.810;6.418;2023-02-28T07:02:23;-0.50;99.90
12115;DHT22;6121;49.810;6.418;2023-02-28T07:04:48;-0.60;99.90
12115;DHT22;6121;49.810;6.418;2023-02-28T07:07:14;-0.20;99.90
12115;DHT22;6121;49.810;6.418;2023-02-28T07:09:40;-0.10;99.90
12115;DHT22;6121;49.810;6.418;2023-02-28T07:12:06;-0.30;99.90
12115;DHT22;6121;49.810;6.418;2023-02-28T07:14:32;-0.20;99.90
12115;DHT22;6121;49.810;6.418;2023-02-28T07:16:57;0.10;99.90
12115;DHT22;6121;49.810;6.418;2023-02-28T07:19:23;0.20;99.90
12115;DHT22;6121;49.810;6.418;2023-02-28T07:21:49;0.20;99.90
12115;DHT22;6121;49.810;6.418;2023-02-28T07:24:15;0.20;99.90
12115;DHT22;6121;49.810;6.418;2023-02-28T07:26:43;0.60;99.90
12115;DHT22;6121;49.810;6.418;2023-02-28T07:29:10;0.60;99.90
12115;DHT22;6121;49.810;6.418;2023-02-28T07:31:36;0.90;99.90
12115;DHT22;6121;49.810;6.418;2023-02-28T07:34:01;0.90;99.90
12115;DHT22;6121;49.810;6.418;2023-02-28T07:36:28;0.80;99.90
12115;DHT22;6121;49.810;6.418;2023-02-28T07:38:54;1.10;99.70
12115;DHT22;6121;49.810;6.418;2023-02-28T07:41:21;1.30;99.60
12115;DHT22;6121;49.810;6.418;2023-02-28T07:43:47;1.60;99.00
12115;DHT22;6121;49.810;6.418;2023-02-28T07:46:15;1.90;98.80
12115;DHT22;6121;49.810;6.418;2023-02-28T07:48:41;2.00;98.00
12115;DHT22;6121;49.810;6.418;2023-02-28T07:51:07;2.10;98.10
12115;DHT22;6121;49.810;6.418;2023-02-28T07:53:33;2.30;97.90
12115;DHT22;6121;49.810;6.418;2023-02-28T07:56:01;2.40;97.30
12115;DHT22;6121;49.810;6.418;2023-02-28T07:58:29;2.40;97.20
12115;DHT22;6121;49.810;6.418;2023-02-28T08:00:55;2.50;97.40
12115;DHT22;6121;49.810;6.418;2023-02-28T08:03:22;2.90;97.20
12115;DHT22;6121;49.810;6.418;2023-02-28T08:05:48;3.10;96.90
12115;DHT22;6121;49.810;6.418;2023-02-28T08:08:15;3.20;96.70
12115;DHT22;6121;49.810;6.418;2023-02-28T08:10:41;3.20;96.40
12115;DHT22;6121;49.810;6.418;2023-02-28T08:13:07;2.80;96.60
12115;DHT22;6121;49.810;6.418;2023-02-28T08:15:33;3.20;96.80
12115;DHT22;6121;49.810;6.418;2023-02-28T08:17:59;3.60;96.20
12115;DHT22;6121;49.810;6.418;2023-02-28T08:20:26;3.80;95.60
12115;DHT22;6121;49.810;6.418;2023-02-28T08:22:52;3.80;95.10
12115;DHT22;6121;49.810;6.418;2023-02-28T08:25:18;3.90;95.20
12115;DHT22;6121;49.810;6.418;2023-02-28T08:27:44;4.00;94.90
12115;DHT22;6121;49.810;6.418;2023-02-28T08:30:12;4.00;94.60
12115;DHT22;6121;49.810;6.418;2023-02-28T08:32:39;4.50;94.80
12115;DHT22;6121;49.810;6.418;2023-02-28T08:35:05;4.70;94.00
12115;DHT22;6121;49.810;6.418;2023-02-28T08:37:31;4.70;93.00
12115;DHT22;6121;49.810;6.418;2023-02-28T08:39:57;4.50;93.50
12115;DHT22;6121;49.810;6.418;2023-02-28T08:42:24;4.70;93.00
12115;DHT22;6121;49.810;6.418;2023-02-28T08:44:50;5.10;92.50
12115;DHT22;6121;49.810;6.418;2023-02-28T08:47:15;5.20;92.00
12115;DHT22;6121;49.810;6.418;2023-02-28T08:49:41;5.40;91.80
12115;DHT22;6121;49.810;6.418;2023-02-28T08:52:07;5.50;91.10
12115;DHT22;6121;49.810;6.418;2023-02-28T08:54:33;5.50;90.40
12115;DHT22;6121;49.810;6.418;2023-02-28T08:57:00;5.70;90.40
12115;DHT22;6121;49.810;6.418;2023-02-28T08:59:25;5.90;90.00
12115;DHT22;6121;49.810;6.418;2023-02-28T09:01:51;6.10;88.10
12115;DHT22;6121;49.810;6.418;2023-02-28T09:04:17;6.10;86.50
12115;DHT22;6121;49.810;6.418;2023-02-28T09:06:43;6.40;86.50
12115;DHT22;6121;49.810;6.418;2023-02-28T09:09:10;6.20;85.40
12115;DHT22;6121;49.810;6.418;2023-02-28T09:11:36;6.40;84.30
12115;DHT22;6121;49.810;6.418;2023-02-28T09:14:02;6.50;83.50
12115;DHT22;6121;49.810;6.418;2023-02-28T09:16:32;6.40;82.60
12115;DHT22;6121;49.810;6.418;2023-02-28T09:18:58;6.50;83.30
12115;DHT22;6121;49.810;6.418;2023-02-28T09:21:24;7.10;79.70
12115;DHT22;6121;49.810;6.418;2023-02-28T09:23:50;7.10;79.10
12115;DHT22;6121;49.810;6.418;2023-02-28T09:26:19;7.40;78.30
12115;DHT22;6121;49.810;6.418;2023-02-28T09:28:45;7.70;76.70
12115;DHT22;6121;49.810;6.418;2023-02-28T09:31:16;7.60;73.00
12115;DHT22;6121;49.810;6.418;2023-02-28T09:33:47;7.00;73.30
12115;DHT22;6121;49.810;6.418;2023-02-28T09:36:13;7.30;74.70
12115;DHT22;6121;49.810;6.418;2023-02-28T09:38:39;8.00;73.90
12115;DHT22;6121;49.810;6.418;2023-02-28T09:41:17;8.40;70.70
12115;DHT22;6121;49.810;6.418;2023-02-28T09:43:49;8.00;69.00
12115;DHT22;6121;49.810;6.418;2023-02-28T09:46:35;8.20;69.10
12115;DHT22;6121;49.810;6.418;2023-02-28T09:49:16;8.10;69.30
12115;DHT22;6121;49.810;6.418;2023-02-28T09:54:18;14.70;61.50
12115;DHT22;6121;49.810;6.418;2023-02-28T10:05:02;18.10;41.40
12115;DHT22;6121;49.810;6.418;2023-02-28T10:10:45;18.60;40.80
12115;DHT22;6121;49.810;6.418;2023-02-28T10:13:35;14.70;41.50
12115;DHT22;6121;49.810;6.418;2023-02-28T10:16:10;12.40;44.50
12115;DHT22;6121;49.810;6.418;2023-02-28T10:18:49;11.60;45.60
12115;DHT22;6121;49.810;6.418;2023-02-28T10:21:28;13.40;47.70
12115;DHT22;6121;49.810;6.418;2023-02-28T10:26:41;20.20;42.20
12115;DHT22;6121;49.810;6.418;2023-02-28T10:29:09;18.20;40.40
12115;DHT22;6121;49.810;6.418;2023-02-28T10:31:35;14.70;41.60
12115;DHT22;6121;49.810;6.418;2023-02-28T10:34:01;14.50;45.00
12115;DHT22;6121;49.810;6.418;2023-02-28T10:36:29;13.50;43.10
12115;DHT22;6121;49.810;6.418;2023-02-28T10:38:55;14.10;45.30
12115;DHT22;6121;49.810;6.418;2023-02-28T10:41:29;17.30;44.20
12115;DHT22;6121;49.810;6.418;2023-02-28T10:46:40;13.90;42.70
12115;DHT22;6121;49.810;6.418;2023-02-28T10:49:14;14.80;45.40
12115;DHT22;6121;49.810;6.418;2023-02-28T10:51:41;15.00;42.00
12115;DHT22;6121;49.810;6.418;2023-02-28T10:54:29;14.00;44.70
12115;DHT22;6121;49.810;6.418;2023-02-28T10:57:11;13.80;45.40
12115;DHT22;6121;49.810;6.418;2023-02-28T10:59:40;12.30;45.20
12115;DHT22;6121;49.810;6.418;2023-02-28T11:02:44;9.90;48.00
12115;DHT22;6121;49.810;6.418;2023-02-28T11:05:32;8.80;50.60
12115;DHT22;6121;49.810;6.418;2023-02-28T11:08:15;8.30;51.70
12115;DHT22;6121;49.810;6.418;2023-02-28T11:10:46;8.90;52.10
12115;DHT22;6121;49.810;6.418;2023-02-28T11:13:17;8.70;52.40
12115;DHT22;6121;49.810;6.418;2023-02-28T11:15:51;9.20;52.90
12115;DHT22;6121;49.810;6.418;2023-02-28T11:18:41;10.60;50.20
12115;DHT22;6121;49.810;6.418;2023-02-28T11:21:09;10.40;49.50
12115;DHT22;6121;49.810;6.418;2023-02-28T11:23:40;9.70;52.00
12115;DHT22;6121;49.810;6.418;2023-02-28T11:26:06;9.50;51.40
12115;DHT22;6121;49.810;6.418;2023-02-28T11:28:38;9.10;53.60
12115;DHT22;6121;49.810;6.418;2023-02-28T11:33:54;13.10;50.60
12115;DHT22;6121;49.810;6.418;2023-02-28T11:38:48;11.20;48.50
12115;DHT22;6121;49.810;6.418;2023-02-28T11:41:31;10.20;49.70
12115;DHT22;6121;49.810;6.418;2023-02-28T11:44:08;10.70;49.40
12115;DHT22;6121;49.810;6.418;2023-02-28T11:46:51;11.20;48.20
12115;DHT22;6121;49.810;6.418;2023-02-28T11:49:46;10.30;48.70
12115;DHT22;6121;49.810;6.418;2023-02-28T11:57:29;8.40;51.50
12115;DHT22;6121;49.810;6.418;2023-02-28T12:00:12;8.20;52.30
12115;DHT22;6121;49.810;6.418;2023-02-28T12:02:50;7.60;53.60
12115;DHT22;6121;49.810;6.418;2023-02-28T12:05:34;7.70;54.10
12115;DHT22;6121;49.810;6.418;2023-02-28T12:08:32;7.50;54.20
12115;DHT22;6121;49.810;6.418;2023-02-28T12:11:40;8.70;53.30
12115;DHT22;6121;49.810;6.418;2023-02-28T12:14:39;7.60;52.70
12115;DHT22;6121;49.810;6.418;2023-02-28T12:17:22;7.70;53.40
12115;DHT22;6121;49.810;6.418;2023-02-28T12:22:31;9.10;50.80
12115;DHT22;6121;49.810;6.418;2023-02-28T12:27:46;7.90;52.20
12115;DHT22;6121;49.810;6.418;2023-02-28T12:30:25;7.80;53.30
12115;DHT22;6121;49.810;6.418;2023-02-28T12:33:11;7.70;53.70
12115;DHT22;6121;49.810;6.418;2023-02-28T12:35:48;7.20;54.60
12115;DHT22;6121;49.810;6.418;2023-02-28T12:38:27;7.00;54.80
12115;DHT22;6121;49.810;6.418;2023-02-28T12:41:04;6.90;55.00
12115;DHT22;6121;49.810;6.418;2023-02-28T12:43:37;6.80;54.90
12115;DHT22;6121;49.810;6.418;2023-02-28T12:46:17;6.90;55.20
12115;DHT22;6121;49.810;6.418;2023-02-28T12:48:55;7.00;55.30
12115;DHT22;6121;49.810;6.418;2023-02-28T12:51:23;7.60;54.70
12115;DHT22;6121;49.810;6.418;2023-02-28T12:54:12;8.00;54.30
12115;DHT22;6121;49.810;6.418;2023-02-28T12:59:32;8.60;53.30
12115;DHT22;6121;49.810;6.418;2023-02-28T13:02:15;8.30;53.30
12115;DHT22;6121;49.810;6.418;2023-02-28T13:05:06;8.00;53.50
12115;DHT22;6121;49.810;6.418;2023-02-28T13:10:20;8.00;53.80
12115;DHT22;6121;49.810;6.418;2023-02-28T13:12:54;7.60;53.60
12115;DHT22;6121;49.810;6.418;2023-02-28T13:15:26;7.60;53.90
12115;DHT22;6121;49.810;6.418;2023-02-28T13:17:56;7.80;53.50
12115;DHT22;6121;49.810;6.418;2023-02-28T13:20:26;7.60;53.50
12115;DHT22;6121;49.810;6.418;2023-02-28T13:22:54;7.50;53.60
12115;DHT22;6121;49.810;6.418;2023-02-28T13:31:14;7.20;53.50
12115;DHT22;6121;49.810;6.418;2023-02-28T13:36:27;7.40;54.50
12115;DHT22;6121;49.810;6.418;2023-02-28T13:42:36;7.50;54.20
12115;DHT22;6121;49.810;6.418;2023-02-28T13:48:31;7.20;54.10
12115;DHT22;6121;49.810;6.418;2023-02-28T13:50:50;7.40;53.80
12115;DHT22;6121;49.810;6.418;2023-02-28T13:59:03;7.20;54.30
12115;DHT22;6121;49.810;6.418;2023-02-28T14:01:55;7.30;54.10
12115;DHT22;6121;49.810;6.418;2023-02-28T14:07:08;7.30;54.00
12115;DHT22;6121;49.810;6.418;2023-02-28T14:09:41;7.00;54.30
12115;DHT22;6121;49.810;6.418;2023-02-28T14:20:43;7.00;54.50
12115;DHT22;6121;49.810;6.418;2023-02-28T14:23:35;7.10;54.80
12115;DHT22;6121;49.810;6.418;2023-02-28T14:31:49;6.50;55.30
12115;DHT22;6121;49.810;6.418;2023-02-28T14:34:36;6.60;55.40
12115;DHT22;6121;49.810;6.418;2023-02-28T14:37:04;6.60;55.60
12115;DHT22;6121;49.810;6.418;2023-02-28T14:39:31;6.70;55.60
12115;DHT22;6121;49.810;6.418;2023-02-28T14:41:58;6.70;55.40
12115;DHT22;6121;49.810;6.418;2023-02-28T14:44:31;6.80;55.50
12115;DHT22;6121;49.810;6.418;2023-02-28T14:47:00;6.80;55.60
12115;DHT22;6121;49.810;6.418;2023-02-28T14:49:35;6.70;55.00
12115;DHT22;6121;49.810;6.418;2023-02-28T14:54:56;6.60;55.10
12115;DHT22;6121;49.810;6.418;2023-02-28T14:57:28;6.60;55.50
12115;DHT22;6121;49.810;6.418;2023-02-28T15:00:24;6.50;55.50
12115;DHT22;6121;49.810;6.418;2023-02-28T15:02:51;6.40;55.60
12115;DHT22;6121;49.810;6.418;2023-02-28T15:05:34;6.40;55.90
12115;DHT22;6121;49.810;6.418;2023-02-28T15:08:10;6.40;55.50
12115;DHT22;6121;49.810;6.418;2023-02-28T15:10:38;6.40;56.10
12115;DHT22;6121;49.810;6.418;2023-02-28T15:13:07;6.30;55.40
12115;DHT22;6121;49.810;6.418;2023-02-28T15:18:25;6.40;55.60
12115;DHT22;6121;49.810;6.418;2023-02-28T15:20:59;6.30;55.90
12115;DHT22;6121;49.810;6.418;2023-02-28T15:23:27;6.40;55.80
12115;DHT22;6121;49.810;6.418;2023-02-28T15:25:54;6.30;56.00
12115;DHT22;6121;49.810;6.418;2023-02-28T15:28:22;6.20;55.70
12115;DHT22;6121;49.810;6.418;2023-02-28T15:30:54;6.20;56.00
12115;DHT22;6121;49.810;6.418;2023-02-28T15:33:23;6.20;56.20
12115;DHT22;6121;49.810;6.418;2023-02-28T15:35:51;6.30;56.10
12115;DHT22;6121;49.810;6.418;2023-02-28T15:38:25;6.40;56.20
12115;DHT22;6121;49.810;6.418;2023-02-28T15:40:56;6.30;56.10
12115;DHT22;6121;49.810;6.418;2023-02-28T15:43:28;6.20;56.20
12115;DHT22;6121;49.810;6.418;2023-02-28T15:45:59;6.30;56.30
12115;DHT22;6121;49.810;6.418;2023-02-28T15:48:31;6.20;56.10
12115;DHT22;6121;49.810;6.418;2023-02-28T15:51:14;6.10;56.00
12115;DHT22;6121;49.810;6.418;2023-02-28T15:53:52;6.10;56.00
12115;DHT22;6121;49.810;6.418;2023-02-28T15:56:35;6.30;56.10
12115;DHT22;6121;49.810;6.418;2023-02-28T15:59:23;6.10;56.30
12115;DHT22;6121;49.810;6.418;2023-02-28T16:04:35;6.10;56.40
12115;DHT22;6121;49.810;6.418;2023-02-28T16:07:12;6.00;56.20
12115;DHT22;6121;49.810;6.418;2023-02-28T16:09:37;6.00;56.80
12115;DHT22;6121;49.810;6.418;2023-02-28T16:12:04;5.80;56.90
12115;DHT22;6121;49.810;6.418;2023-02-28T16:14:31;5.90;57.00
12115;DHT22;6121;49.810;6.418;2023-02-28T16:17:03;5.80;57.30
12115;DHT22;6121;49.810;6.418;2023-02-28T16:19:30;5.90;57.20
12115;DHT22;6121;49.810;6.418;2023-02-28T16:21:56;5.80;57.20
12115;DHT22;6121;49.810;6.418;2023-02-28T16:24:22;6.00;57.70
12115;DHT22;6121;49.810;6.418;2023-02-28T16:26:50;5.80;57.40
12115;DHT22;6121;49.810;6.418;2023-02-28T16:29:37;5.90;57.60
12115;DHT22;6121;49.810;6.418;2023-02-28T16:32:06;5.90;57.70
12115;DHT22;6121;49.810;6.418;2023-02-28T16:34:33;6.00;57.50
12115;DHT22;6121;49.810;6.418;2023-02-28T16:36:59;5.90;57.40
12115;DHT22;6121;49.810;6.418;2023-02-28T16:39:25;5.90;57.50
12115;DHT22;6121;49.810;6.418;2023-02-28T16:41:51;5.60;57.50
12115;DHT22;6121;49.810;6.418;2023-02-28T16:44:29;5.70;57.50
12115;DHT22;6121;49.810;6.418;2023-02-28T16:46:59;5.60;57.60
12115;DHT22;6121;49.810;6.418;2023-02-28T16:49:25;5.50;57.90
12115;DHT22;6121;49.810;6.418;2023-02-28T16:51:51;5.40;58.10
12115;DHT22;6121;49.810;6.418;2023-02-28T16:54:17;5.50;57.90
12115;DHT22;6121;49.810;6.418;2023-02-28T16:56:45;5.40;58.00
12115;DHT22;6121;49.810;6.418;2023-02-28T16:59:12;5.40;58.30
12115;DHT22;6121;49.810;6.418;2023-02-28T17:01:38;5.30;58.60
12115;DHT22;6121;49.810;6.418;2023-02-28T17:04:04;5.10;58.90
12115;DHT22;6121;49.810;6.418;2023-02-28T17:06:30;5.10;58.80
12115;DHT22;6121;49.810;6.418;2023-02-28T17:08:57;5.00;59.40
12115;DHT22;6121;49.810;6.418;2023-02-28T17:11:24;5.00;59.60
12115;DHT22;6121;49.810;6.418;2023-02-28T17:13:51;5.00;59.40
12115;DHT22;6121;49.810;6.418;2023-02-28T17:16:37;5.00;59.20
12115;DHT22;6121;49.810;6.418;2023-02-28T17:19:07;5.00;59.30
12115;DHT22;6121;49.810;6.418;2023-02-28T17:21:36;5.00;59.80
12115;DHT22;6121;49.810;6.418;2023-02-28T17:24:03;5.00;59.50
12115;DHT22;6121;49.810;6.418;2023-02-28T17:26:29;5.00;59.60
12115;DHT22;6121;49.810;6.418;2023-02-28T17:28:56;4.70;59.50
12115;DHT22;6121;49.810;6.418;2023-02-28T17:31:23;4.70;60.10
12115;DHT22;6121;49.810;6.418;2023-02-28T17:33:50;4.60;60.20
12115;DHT22;6121;49.810;6.418;2023-02-28T17:36:23;4.70;60.30
12115;DHT22;6121;49.810;6.418;2023-02-28T17:38:50;4.70;60.40
12115;DHT22;6121;49.810;6.418;2023-02-28T17:41:16;4.70;60.40
12115;DHT22;6121;49.810;6.418;2023-02-28T17:43:42;4.70;60.30
12115;DHT22;6121;49.810;6.418;2023-02-28T17:46:17;4.60;60.80
12115;DHT22;6121;49.810;6.418;2023-02-28T17:48:47;4.50;61.70
12115;DHT22;6121;49.810;6.418;2023-02-28T17:51:14;4.20;61.50
12115;DHT22;6121;49.810;6.418;2023-02-28T17:53:42;4.30;62.10
12115;DHT22;6121;49.810;6.418;2023-02-28T17:56:16;4.30;62.10
12115;DHT22;6121;49.810;6.418;2023-02-28T17:58:43;4.40;61.90
12115;DHT22;6121;49.810;6.418;2023-02-28T18:01:09;4.40;61.60
12115;DHT22;6121;49.810;6.418;2023-02-28T18:03:39;4.40;61.60
12115;DHT22;6121;49.810;6.418;2023-02-28T18:06:05;4.40;61.90
12115;DHT22;6121;49.810;6.418;2023-02-28T18:08:32;4.30;62.00
12115;DHT22;6121;49.810;6.418;2023-02-28T18:11:00;4.30;62.00
12115;DHT22;6121;49.810;6.418;2023-02-28T18:13:26;4.10;62.30